sensor_id;sensor_type;location;lat;lon;timestamp;P1;durP1;ratioP1;P2;durP2;ratioP2
68479;SDS011;55469;48.934;12.050;2023-05-27T00:00:05;3.88;;;2.63;;
68479;SDS011;55469;48.934;12.050;2023-05-27T00:02:34;4.05;;;2.60;;
68479;SDS011;55469;48.934;12.050;2023-05-27T00:05:00;3.60;;;2.63;;
68479;SDS011;55469;48.934;12.050;2023-05-27T00:07:26;4.45;;;2.72;;
68479;SDS011;55469;48.934;12.050;2023-05-27T00:09:53;3.88;;;2.63;;
68479;SDS011;55469;48.934;12.050;2023-05-27T00:12:19;3.08;;;2.50;;
68479;SDS011;55469;48.934;12.050;2023-05-27T00:14:45;4.13;;;2.28;;
68479;SDS011;55469;48.934;12.050;2023-05-27T00:17:11;5.40;;;2.70;;
68479;SDS011;55469;48.934;12.050;2023-05-27T00:19:43;4.10;;;2.45;;
68479;SDS011;55469;48.934;12.050;2023-05-27T00:22:10;3.45;;;2.45;;
68479;SDS011;55469;48.934;12.050;2023-05-27T00:24:36;4.05;;;2.50;;
68479;SDS011;55469;48.934;12.050;2023-05-27T00:27:04;3.60;;;2.22;;
68479;SDS011;55469;48.934;12.050;2023-05-27T00:29:31;3.63;;;2.40;;
68479;SDS011;55469;48.934;12.050;2023-05-27T00:31:57;4.28;;;2.60;;
68479;SDS011;55469;48.934;12.050;2023-05-27T00:34:25;3.15;;;2.60;;
68479;SDS011;55469;48.934;12.050;2023-05-27T00:36:50;3.20;;;2.40;;
68479;SDS011;55469;48.934;12.050;2023-05-27T00:39:16;3.60;;;2.30;;
68479;SDS011;55469;48.934;12.050;2023-05-27T00:41:43;2.47;;;2.28;;
68479;SDS011;55469;48.934;12.050;2023-05-27T00:44:14;4.63;;;2.67;;
68479;SDS011;55469;48.934;12.050;2023-05-27T00:46:40;3.15;;;2.30;;
68479;SDS011;55469;48.934;12.050;2023-05-27T00:49:06;4.07;;;2.17;;
68479;SDS011;55469;48.934;12.050;2023-05-27T00:51:32;3.90;;;2.38;;
68479;SDS011;55469;48.934;12.050;2023-05-27T00:53:58;4.65;;;2.45;;
68479;SDS011;55469;48.934;12.050;2023-05-27T00:56:24;2.35;;;2.08;;
68479;SDS011;55469;48.934;12.050;2023-05-27T00:58:50;4.65;;;2.10;;
68479;SDS011;55469;48.934;12.050;2023-05-27T01:01:17;3.03;;;2.22;;
68479;SDS011;55469;48.934;12.050;2023-05-27T01:03:44;4.25;;;2.38;;
68479;SDS011;55469;48.934;12.050;2023-05-27T01:08:57;3.22;;;2.30;;
68479;SDS011;55469;48.934;12.050;2023-05-27T01:11:29;3.70;;;2.53;;
68479;SDS011;55469;48.934;12.050;2023-05-27T01:14:08;3.50;;;2.40;;
68479;SDS011;55469;48.934;12.050;2023-05-27T01:16:38;2.72;;;2.30;;
68479;SDS011;55469;48.934;12.050;2023-05-27T01:19:07;2.42;;;2.10;;
68479;SDS011;55469;48.934;12.050;2023-05-27T01:21:39;2.60;;;2.13;;
68479;SDS011;55469;48.934;12.050;2023-05-27T01:24:10;2.78;;;2.30;;
68479;SDS011;55469;48.934;12.050;2023-05-27T01:26:36;3.28;;;2.13;;
68479;SDS011;55469;48.934;12.050;2023-05-27T01:29:02;4.10;;;2.50;;
68479;SDS011;55469;48.934;12.050;2023-05-27T01:31:35;2.83;;;2.10;;
68479;SDS011;55469;48.934;12.050;2023-05-27T01:34:18;3.17;;;2.40;;
68479;SDS011;55469;48.934;12.050;2023-05-27T01:36:52;3.03;;;2.10;;
68479;SDS011;55469;48.934;12.050;2023-05-27T01:39:23;3.90;;;2.38;;
68479;SDS011;55469;48.934;12.050;2023-05-27T01:41:52;3.53;;;2.17;;
68479;SDS011;55469;48.934;12.050;2023-05-27T01:44:18;3.95;;;2.40;;
68479;SDS011;55469;48.934;12.050;2023-05-27T01:46:45;4.93;;;2.25;;
68479;SDS011;55469;48.934;12.050;2023-05-27T01:49:11;2.50;;;2.05;;
68479;SDS011;55469;48.934;12.050;2023-05-27T01:51:36;2.95;;;2.28;;
68479;SDS011;55469;48.934;12.050;2023-05-27T01:54:03;3.45;;;2.10;;
68479;SDS011;55469;48.934;12.050;2023-05-27T01:56:29;3.30;;;2.40;;
68479;SDS011;55469;48.934;12.050;2023-05-27T01:58:54;3.08;;;2.30;;
68479;SDS011;55469;48.934;12.050;2023-05-27T02:01:20;3.08;;;2.00;;
68479;SDS011;55469;48.934;12.050;2023-05-27T02:03:47;3.38;;;2.20;;
68479;SDS011;55469;48.934;12.050;2023-05-27T02:06:13;2.70;;;1.98;;
68479;SDS011;55469;48.934;12.050;2023-05-27T02:08:39;3.55;;;1.95;;
68479;SDS011;55469;48.934;12.050;2023-05-27T02:11:05;3.38;;;2.17;;
68479;SDS011;55469;48.934;12.050;2023-05-27T02:13:31;3.80;;;2.05;;
68479;SDS011;55469;48.934;12.050;2023-05-27T02:15:57;2.58;;;2.08;;
68479;SDS011;55469;48.934;12.050;2023-05-27T02:18:23;2.88;;;1.90;;
68479;SDS011;55469;48.934;12.050;2023-05-27T02:20:50;3.38;;;2.00;;
68479;SDS011;55469;48.934;12.050;2023-05-27T02:23:16;3.42;;;2.17;;
68479;SDS011;55469;48.934;12.050;2023-05-27T02:25:41;2.42;;;2.00;;
68479;SDS011;55469;48.934;12.050;2023-05-27T02:28:10;2.97;;;1.90;;
68479;SDS011;55469;48.934;12.050;2023-05-27T02:30:35;3.30;;;1.90;;
68479;SDS011;55469;48.934;12.050;2023-05-27T02:33:01;2.63;;;2.03;;
68479;SDS011;55469;48.934;12.050;2023-05-27T02:35:27;2.92;;;2.00;;
68479;SDS011;55469;48.934;12.050;2023-05-27T02:37:52;3.03;;;1.83;;
68479;SDS011;55469;48.934;12.050;2023-05-27T02:40:24;2.72;;;1.90;;
68479;SDS011;55469;48.934;12.050;2023-05-27T02:42:55;2.92;;;2.03;;
68479;SDS011;55469;48.934;12.050;2023-05-27T02:45:21;2.60;;;1.95;;
68479;SDS011;55469;48.934;12.050;2023-05-27T02:47:47;3.45;;;2.10;;
68479;SDS011;55469;48.934;12.050;2023-05-27T02:50:13;2.80;;;1.90;;
68479;SDS011;55469;48.934;12.050;2023-05-27T02:52:39;4.43;;;2.22;;
68479;SDS011;55469;48.934;12.050;2023-05-27T02:55:05;3.00;;;1.92;;
68479;SDS011;55469;48.934;12.050;2023-05-27T02:57:32;2.72;;;1.80;;
68479;SDS011;55469;48.934;12.050;2023-05-27T02:59:58;3.63;;;2.00;;
68479;SDS011;55469;48.934;12.050;2023-05-27T03:02:24;2.42;;;1.92;;
68479;SDS011;55469;48.934;12.050;2023-05-27T03:04:49;2.97;;;2.10;;
68479;SDS011;55469;48.934;12.050;2023-05-27T03:07:15;3.53;;;1.92;;
68479;SDS011;55469;48.934;12.050;2023-05-27T03:09:41;2.97;;;2.05;;
68479;SDS011;55469;48.934;12.050;2023-05-27T03:12:06;4.47;;;2.22;;
68479;SDS011;55469;48.934;12.050;2023-05-27T03:14:32;3.95;;;1.98;;
68479;SDS011;55469;48.934;12.050;2023-05-27T03:16:58;4.30;;;1.85;;
68479;SDS011;55469;48.934;12.050;2023-05-27T03:19:25;2.53;;;1.80;;
68479;SDS011;55469;48.934;12.050;2023-05-27T03:21:50;2.83;;;1.83;;
68479;SDS011;55469;48.934;12.050;2023-05-27T03:24:16;2.83;;;2.03;;
68479;SDS011;55469;48.934;12.050;2023-05-27T03:26:42;3.38;;;1.90;;
68479;SDS011;55469;48.934;12.050;2023-05-27T03:29:08;3.42;;;2.10;;
68479;SDS011;55469;48.934;12.050;2023-05-27T03:31:34;3.28;;;2.10;;
68479;SDS011;55469;48.934;12.050;2023-05-27T03:34:00;3.67;;;1.90;;
68479;SDS011;55469;48.934;12.050;2023-05-27T03:36:26;2.90;;;1.85;;
68479;SDS011;55469;48.934;12.050;2023-05-27T03:38:51;2.97;;;1.90;;
68479;SDS011;55469;48.934;12.050;2023-05-27T03:41:17;2.95;;;1.80;;
68479;SDS011;55469;48.934;12.050;2023-05-27T03:43:43;3.28;;;1.95;;
68479;SDS011;55469;48.934;12.050;2023-05-27T03:46:09;3.78;;;1.92;;
68479;SDS011;55469;48.934;12.050;2023-05-27T03:48:34;3.65;;;1.88;;
68479;SDS011;55469;48.934;12.050;2023-05-27T03:51:06;2.53;;;1.98;;
68479;SDS011;55469;48.934;12.050;2023-05-27T03:53:32;3.38;;;1.80;;
68479;SDS011;55469;48.934;12.050;2023-05-27T04:02:32;3.80;;;1.80;;
68479;SDS011;55469;48.934;12.050;2023-05-27T04:04:58;2.00;;;1.80;;
68479;SDS011;55469;48.934;12.050;2023-05-27T04:07:25;3.80;;;1.90;;
68479;SDS011;55469;48.934;12.050;2023-05-27T04:09:52;2.63;;;1.75;;
68479;SDS011;55469;48.934;12.050;2023-05-27T04:12:20;2.97;;;1.77;;
68479;SDS011;55469;48.934;12.050;2023-05-27T04:14:46;3.53;;;1.70;;
68479;SDS011;55469;48.934;12.050;2023-05-27T04:17:11;3.17;;;1.85;;
68479;SDS011;55469;48.934;12.050;2023-05-27T04:19:38;2.30;;;1.65;;
68479;SDS011;55469;48.934;12.050;2023-05-27T04:22:04;2.85;;;1.80;;
68479;SDS011;55469;48.934;12.050;2023-05-27T04:24:30;2.83;;;1.95;;
68479;SDS011;55469;48.934;12.050;2023-05-27T04:26:56;2.50;;;1.73;;
68479;SDS011;55469;48.934;12.050;2023-05-27T04:29:21;4.38;;;1.92;;
68479;SDS011;55469;48.934;12.050;2023-05-27T04:31:47;2.63;;;1.95;;
68479;SDS011;55469;48.934;12.050;2023-05-27T04:34:13;2.28;;;1.77;;
68479;SDS011;55469;48.934;12.050;2023-05-27T04:36:39;2.17;;;1.60;;
68479;SDS011;55469;48.934;12.050;2023-05-27T04:39:05;2.45;;;1.67;;
68479;SDS011;55469;48.934;12.050;2023-05-27T04:41:32;2.30;;;1.83;;
68479;SDS011;55469;48.934;12.050;2023-05-27T04:43:58;2.22;;;1.65;;
68479;SDS011;55469;48.934;12.050;2023-05-27T04:46:27;3.25;;;1.60;;
68479;SDS011;55469;48.934;12.050;2023-05-27T04:48:53;3.35;;;1.70;;
68479;SDS011;55469;48.934;12.050;2023-05-27T04:51:19;3.10;;;2.00;;
68479;SDS011;55469;48.934;12.050;2023-05-27T04:53:45;2.30;;;1.70;;
68479;SDS011;55469;48.934;12.050;2023-05-27T04:56:13;3.47;;;1.73;;
68479;SDS011;55469;48.934;12.050;2023-05-27T04:58:42;2.67;;;1.70;;
68479;SDS011;55469;48.934;12.050;2023-05-27T05:01:14;2.70;;;1.70;;
68479;SDS011;55469;48.934;12.050;2023-05-27T05:03:45;3.65;;;1.80;;
68479;SDS011;55469;48.934;12.050;2023-05-27T05:06:27;2.38;;;1.67;;
68479;SDS011;55469;48.934;12.050;2023-05-27T05:08:53;4.50;;;1.98;;
68479;SDS011;55469;48.934;12.050;2023-05-27T05:11:29;3.60;;;2.03;;
68479;SDS011;55469;48.934;12.050;2023-05-27T05:13:56;2.75;;;1.65;;
68479;SDS011;55469;48.934;12.050;2023-05-27T05:16:22;2.65;;;1.70;;
68479;SDS011;55469;48.934;12.050;2023-05-27T05:18:47;1.88;;;1.50;;
68479;SDS011;55469;48.934;12.050;2023-05-27T05:21:13;2.42;;;1.60;;
68479;SDS011;55469;48.934;12.050;2023-05-27T05:23:39;3.28;;;1.88;;
68479;SDS011;55469;48.934;12.050;2023-05-27T05:26:06;2.40;;;1.73;;
68479;SDS011;55469;48.934;12.050;2023-05-27T05:28:32;4.18;;;1.70;;
68479;SDS011;55469;48.934;12.050;2023-05-27T05:30:59;5.10;;;1.88;;
68479;SDS011;55469;48.934;12.050;2023-05-27T05:33:25;3.30;;;1.80;;
68479;SDS011;55469;48.934;12.050;2023-05-27T05:35:51;5.78;;;2.08;;
68479;SDS011;55469;48.934;12.050;2023-05-27T05:38:17;2.42;;;1.75;;
68479;SDS011;55469;48.934;12.050;2023-05-27T05:40:46;3.38;;;1.60;;
68479;SDS011;55469;48.934;12.050;2023-05-27T05:43:14;4.13;;;1.90;;
68479;SDS011;55469;48.934;12.050;2023-05-27T05:45:41;4.30;;;1.90;;
68479;SDS011;55469;48.934;12.050;2023-05-27T05:48:07;2.97;;;1.90;;
68479;SDS011;55469;48.934;12.050;2023-05-27T05:50:32;3.08;;;1.70;;
68479;SDS011;55469;48.934;12.050;2023-05-27T05:52:58;2.95;;;1.80;;
68479;SDS011;55469;48.934;12.050;2023-05-27T05:55:24;3.83;;;1.92;;
68479;SDS011;55469;48.934;12.050;2023-05-27T05:57:49;4.57;;;1.90;;
68479;SDS011;55469;48.934;12.050;2023-05-27T06:00:15;3.50;;;1.70;;
68479;SDS011;55469;48.934;12.050;2023-05-27T06:02:41;2.80;;;1.77;;
68479;SDS011;55469;48.934;12.050;2023-05-27T06:05:07;4.35;;;1.90;;
68479;SDS011;55469;48.934;12.050;2023-05-27T06:07:33;2.75;;;1.67;;
68479;SDS011;55469;48.934;12.050;2023-05-27T06:09:59;3.47;;;1.92;;
68479;SDS011;55469;48.934;12.050;2023-05-27T06:12:25;4.57;;;1.90;;
68479;SDS011;55469;48.934;12.050;2023-05-27T06:14:50;2.97;;;1.98;;
68479;SDS011;55469;48.934;12.050;2023-05-27T06:17:16;2.85;;;1.83;;
68479;SDS011;55469;48.934;12.050;2023-05-27T06:19:42;3.30;;;1.70;;
68479;SDS011;55469;48.934;12.050;2023-05-27T06:22:08;3.25;;;1.80;;
68479;SDS011;55469;48.934;12.050;2023-05-27T06:24:33;3.88;;;1.88;;
68479;SDS011;55469;48.934;12.050;2023-05-27T06:26:59;4.00;;;1.80;;
68479;SDS011;55469;48.934;12.050;2023-05-27T06:29:26;4.05;;;1.70;;
68479;SDS011;55469;48.934;12.050;2023-05-27T06:34:42;3.50;;;2.10;;
68479;SDS011;55469;48.934;12.050;2023-05-27T06:37:15;2.45;;;1.80;;
68479;SDS011;55469;48.934;12.050;2023-05-27T06:39:40;3.40;;;1.80;;
68479;SDS011;55469;48.934;12.050;2023-05-27T06:44:36;3.40;;;1.85;;
68479;SDS011;55469;48.934;12.050;2023-05-27T06:47:16;4.10;;;2.20;;
68479;SDS011;55469;48.934;12.050;2023-05-27T06:49:42;2.60;;;1.65;;
68479;SDS011;55469;48.934;12.050;2023-05-27T06:52:07;6.15;;;2.40;;
68479;SDS011;55469;48.934;12.050;2023-05-27T06:54:33;10.38;;;2.55;;
68479;SDS011;55469;48.934;12.050;2023-05-27T06:57:01;5.40;;;2.70;;
68479;SDS011;55469;48.934;12.050;2023-05-27T07:03:19;7.57;;;2.80;;
68479;SDS011;55469;48.934;12.050;2023-05-27T07:08:51;5.72;;;2.60;;
68479;SDS011;55469;48.934;12.050;2023-05-27T07:11:17;7.15;;;2.83;;
68479;SDS011;55469;48.934;12.050;2023-05-27T07:13:43;7.90;;;2.70;;
68479;SDS011;55469;48.934;12.050;2023-05-27T07:16:09;7.60;;;2.60;;
68479;SDS011;55469;48.934;12.050;2023-05-27T07:18:34;8.25;;;2.88;;
68479;SDS011;55469;48.934;12.050;2023-05-27T07:21:02;8.30;;;2.90;;
68479;SDS011;55469;48.934;12.050;2023-05-27T07:23:36;8.82;;;2.83;;
68479;SDS011;55469;48.934;12.050;2023-05-27T07:26:14;1999.90;;;682.45;;
68479;SDS011;55469;48.934;12.050;2023-05-27T07:28:40;1921.30;;;388.10;;
68479;SDS011;55469;48.934;12.050;2023-05-27T07:31:05;708.80;;;119.80;;
68479;SDS011;55469;48.934;12.050;2023-05-27T07:33:31;70.07;;;11.73;;
68479;SDS011;55469;48.934;12.050;2023-05-27T07:36:09;23.38;;;5.10;;
68479;SDS011;55469;48.934;12.050;2023-05-27T07:38:35;19.20;;;4.13;;
68479;SDS011;55469;48.934;12.050;2023-05-27T07:41:01;6.75;;;2.75;;
68479;SDS011;55469;48.934;12.050;2023-05-27T07:43:26;9.90;;;3.13;;
68479;SDS011;55469;48.934;12.050;2023-05-27T07:45:52;7.50;;;2.70;;
68479;SDS011;55469;48.934;12.050;2023-05-27T07:48:18;8.80;;;2.75;;
68479;SDS011;55469;48.934;12.050;2023-05-27T07:50:43;8.18;;;3.00;;
68479;SDS011;55469;48.934;12.050;2023-05-27T07:53:09;8.98;;;3.03;;
68479;SDS011;55469;48.934;12.050;2023-05-27T07:58:15;10.85;;;3.05;;
68479;SDS011;55469;48.934;12.050;2023-05-27T08:00:40;8.57;;;3.08;;
68479;SDS011;55469;48.934;12.050;2023-05-27T08:05:45;10.00;;;3.10;;
68479;SDS011;55469;48.934;12.050;2023-05-27T08:08:19;12.07;;;3.10;;
68479;SDS011;55469;48.934;12.050;2023-05-27T08:10:45;8.55;;;2.85;;
68479;SDS011;55469;48.934;12.050;2023-05-27T08:13:11;10.02;;;2.88;;
68479;SDS011;55469;48.934;12.050;2023-05-27T08:15:37;6.60;;;2.65;;
68479;SDS011;55469;48.934;12.050;2023-05-27T08:18:02;9.13;;;3.03;;
68479;SDS011;55469;48.934;12.050;2023-05-27T08:20:28;8.00;;;3.03;;
68479;SDS011;55469;48.934;12.050;2023-05-27T08:22:54;9.07;;;2.50;;
68479;SDS011;55469;48.934;12.050;2023-05-27T08:25:20;7.45;;;2.97;;
68479;SDS011;55469;48.934;12.050;2023-05-27T08:27:50;9.93;;;3.17;;
68479;SDS011;55469;48.934;12.050;2023-05-27T08:33:43;7.78;;;3.00;;
68479;SDS011;55469;48.934;12.050;2023-05-27T08:36:09;8.85;;;2.50;;
68479;SDS011;55469;48.934;12.050;2023-05-27T08:38:36;7.13;;;3.03;;
68479;SDS011;55469;48.934;12.050;2023-05-27T08:41:02;11.00;;;2.70;;
68479;SDS011;55469;48.934;12.050;2023-05-27T08:43:28;9.57;;;2.78;;
68479;SDS011;55469;48.934;12.050;2023-05-27T08:46:12;9.73;;;2.90;;
68479;SDS011;55469;48.934;12.050;2023-05-27T08:48:40;7.20;;;2.80;;
68479;SDS011;55469;48.934;12.050;2023-05-27T08:51:06;9.73;;;3.20;;
68479;SDS011;55469;48.934;12.050;2023-05-27T08:53:34;11.68;;;3.13;;
68479;SDS011;55469;48.934;12.050;2023-05-27T08:59:45;7.90;;;2.95;;
68479;SDS011;55469;48.934;12.050;2023-05-27T09:02:12;8.68;;;3.05;;
68479;SDS011;55469;48.934;12.050;2023-05-27T09:04:39;13.80;;;3.30;;
68479;SDS011;55469;48.934;12.050;2023-05-27T09:07:06;10.20;;;3.13;;
68479;SDS011;55469;48.934;12.050;2023-05-27T09:09:32;8.52;;;3.30;;
68479;SDS011;55469;48.934;12.050;2023-05-27T09:12:02;8.93;;;2.90;;
68479;SDS011;55469;48.934;12.050;2023-05-27T09:14:28;9.88;;;3.10;;
68479;SDS011;55469;48.934;12.050;2023-05-27T09:16:55;10.98;;;3.38;;
68479;SDS011;55469;48.934;12.050;2023-05-27T09:19:21;12.95;;;3.90;;
68479;SDS011;55469;48.934;12.050;2023-05-27T09:21:48;13.18;;;3.22;;
68479;SDS011;55469;48.934;12.050;2023-05-27T09:24:17;8.73;;;2.90;;
68479;SDS011;55469;48.934;12.050;2023-05-27T09:26:43;8.02;;;3.00;;
68479;SDS011;55469;48.934;12.050;2023-05-27T09:29:09;7.95;;;3.47;;
68479;SDS011;55469;48.934;12.050;2023-05-27T09:31:41;7.15;;;2.97;;
68479;SDS011;55469;48.934;12.050;2023-05-27T09:34:13;8.73;;;2.90;;
68479;SDS011;55469;48.934;12.050;2023-05-27T09:36:44;10.27;;;3.20;;
68479;SDS011;55469;48.934;12.050;2023-05-27T09:39:13;8.07;;;2.88;;
68479;SDS011;55469;48.934;12.050;2023-05-27T09:41:40;8.18;;;2.85;;
68479;SDS011;55469;48.934;12.050;2023-05-27T09:44:08;5.82;;;2.67;;
68479;SDS011;55469;48.934;12.050;2023-05-27T09:46:34;11.85;;;3.33;;
68479;SDS011;55469;48.934;12.050;2023-05-27T09:49:01;10.40;;;3.20;;
68479;SDS011;55469;48.934;12.050;2023-05-27T09:51:31;10.57;;;3.17;;
68479;SDS011;55469;48.934;12.050;2023-05-27T09:53:58;8.55;;;3.15;;
68479;SDS011;55469;48.934;12.050;2023-05-27T09:56:24;12.68;;;3.70;;
68479;SDS011;55469;48.934;12.050;2023-05-27T09:58:55;7.30;;;3.15;;
68479;SDS011;55469;48.934;12.050;2023-05-27T10:01:26;5.95;;;2.85;;
68479;SDS011;55469;48.934;12.050;2023-05-27T10:03:54;9.43;;;3.10;;
68479;SDS011;55469;48.934;12.050;2023-05-27T10:06:23;7.80;;;3.13;;
68479;SDS011;55469;48.934;12.050;2023-05-27T10:08:51;8.55;;;3.13;;
68479;SDS011;55469;48.934;12.050;2023-05-27T10:11:26;4.68;;;2.30;;
68479;SDS011;55469;48.934;12.050;2023-05-27T10:13:56;6.17;;;2.87;;
68479;SDS011;55469;48.934;12.050;2023-05-27T10:16:25;7.53;;;3.15;;
68479;SDS011;55469;48.934;12.050;2023-05-27T10:18:56;8.35;;;2.85;;
68479;SDS011;55469;48.934;12.050;2023-05-27T10:21:23;5.63;;;2.40;;
68479;SDS011;55469;48.934;12.050;2023-05-27T10:23:59;5.47;;;2.63;;
68479;SDS011;55469;48.934;12.050;2023-05-27T10:26:36;6.50;;;2.80;;
68479;SDS011;55469;48.934;12.050;2023-05-27T10:29:11;7.25;;;2.90;;
68479;SDS011;55469;48.934;12.050;2023-05-27T10:31:49;4.78;;;2.90;;
68479;SDS011;55469;48.934;12.050;2023-05-27T10:34:16;5.93;;;2.63;;
68479;SDS011;55469;48.934;12.050;2023-05-27T10:36:43;8.38;;;3.15;;
68479;SDS011;55469;48.934;12.050;2023-05-27T10:44:07;5.95;;;2.70;;
68479;SDS011;55469;48.934;12.050;2023-05-27T10:46:43;5.97;;;2.40;;
68479;SDS011;55469;48.934;12.050;2023-05-27T10:49:55;5.18;;;2.60;;
68479;SDS011;55469;48.934;12.050;2023-05-27T10:52:07;6.57;;;2.67;;
68479;SDS011;55469;48.934;12.050;2023-05-27T10:54:36;5.35;;;2.33;;
68479;SDS011;55469;48.934;12.050;2023-05-27T10:57:03;5.82;;;2.60;;
68479;SDS011;55469;48.934;12.050;2023-05-27T10:59:50;5.35;;;2.40;;
68479;SDS011;55469;48.934;12.050;2023-05-27T11:02:16;6.55;;;2.78;;
68479;SDS011;55469;48.934;12.050;2023-05-27T11:04:43;3.92;;;2.40;;
68479;SDS011;55469;48.934;12.050;2023-05-27T11:07:09;4.47;;;2.38;;
68479;SDS011;55469;48.934;12.050;2023-05-27T11:09:51;4.60;;;2.50;;
68479;SDS011;55469;48.934;12.050;2023-05-27T11:12:20;5.38;;;2.40;;
68479;SDS011;55469;48.934;12.050;2023-05-27T11:14:56;5.85;;;2.50;;
68479;SDS011;55469;48.934;12.050;2023-05-27T11:17:22;4.72;;;2.10;;
68479;SDS011;55469;48.934;12.050;2023-05-27T11:19:50;3.78;;;2.10;;
68479;SDS011;55469;48.934;12.050;2023-05-27T11:22:16;3.63;;;2.20;;
68479;SDS011;55469;48.934;12.050;2023-05-27T11:24:43;4.20;;;2.40;;
68479;SDS011;55469;48.934;12.050;2023-05-27T11:27:23;4.57;;;2.28;;
68479;SDS011;55469;48.934;12.050;2023-05-27T11:29:50;4.07;;;2.30;;
68479;SDS011;55469;48.934;12.050;2023-05-27T11:32:17;4.20;;;2.22;;
68479;SDS011;55469;48.934;12.050;2023-05-27T11:34:44;3.97;;;2.30;;
68479;SDS011;55469;48.934;12.050;2023-05-27T11:37:11;5.47;;;2.50;;
68479;SDS011;55469;48.934;12.050;2023-05-27T11:39:37;4.25;;;1.95;;
68479;SDS011;55469;48.934;12.050;2023-05-27T11:42:14;3.67;;;2.13;;
68479;SDS011;55469;48.934;12.050;2023-05-27T11:44:49;3.80;;;2.13;;
68479;SDS011;55469;48.934;12.050;2023-05-27T11:47:16;3.50;;;2.00;;
68479;SDS011;55469;48.934;12.050;2023-05-27T11:49:42;3.47;;;1.90;;
68479;SDS011;55469;48.934;12.050;2023-05-27T11:52:08;4.00;;;2.30;;
68479;SDS011;55469;48.934;12.050;2023-05-27T11:54:37;2.90;;;1.83;;
68479;SDS011;55469;48.934;12.050;2023-05-27T11:57:03;2.97;;;1.90;;
68479;SDS011;55469;48.934;12.050;2023-05-27T11:59:32;2.78;;;1.90;;
68479;SDS011;55469;48.934;12.050;2023-05-27T12:02:00;3.53;;;2.03;;
68479;SDS011;55469;48.934;12.050;2023-05-27T12:04:26;3.83;;;1.95;;
68479;SDS011;55469;48.934;12.050;2023-05-27T12:06:51;4.32;;;2.13;;
68479;SDS011;55469;48.934;12.050;2023-05-27T12:09:17;2.90;;;2.08;;
68479;SDS011;55469;48.934;12.050;2023-05-27T12:11:44;3.33;;;2.20;;
68479;SDS011;55469;48.934;12.050;2023-05-27T12:14:10;4.05;;;2.10;;
68479;SDS011;55469;48.934;12.050;2023-05-27T12:16:35;4.55;;;2.10;;
68479;SDS011;55469;48.934;12.050;2023-05-27T12:19:01;2.95;;;1.85;;
68479;SDS011;55469;48.934;12.050;2023-05-27T12:21:27;2.30;;;1.67;;
68479;SDS011;55469;48.934;12.050;2023-05-27T12:23:53;3.67;;;1.90;;
68479;SDS011;55469;48.934;12.050;2023-05-27T12:26:19;4.78;;;2.00;;
68479;SDS011;55469;48.934;12.050;2023-05-27T12:37:20;4.27;;;2.17;;
68479;SDS011;55469;48.934;12.050;2023-05-27T12:39:46;3.75;;;2.00;;
68479;SDS011;55469;48.934;12.050;2023-05-27T12:42:12;4.75;;;2.10;;
68479;SDS011;55469;48.934;12.050;2023-05-27T12:44:37;2.53;;;1.80;;
68479;SDS011;55469;48.934;12.050;2023-05-27T12:47:03;3.78;;;1.92;;
68479;SDS011;55469;48.934;12.050;2023-05-27T12:49:29;2.47;;;2.05;;
68479;SDS011;55469;48.934;12.050;2023-05-27T12:51:55;4.15;;;2.00;;
68479;SDS011;55469;48.934;12.050;2023-05-27T12:54:21;2.50;;;1.90;;
68479;SDS011;55469;48.934;12.050;2023-05-27T12:56:46;3.22;;;1.90;;
68479;SDS011;55469;48.934;12.050;2023-05-27T12:59:12;5.82;;;2.08;;
68479;SDS011;55469;48.934;12.050;2023-05-27T13:01:38;2.55;;;1.63;;
68479;SDS011;55469;48.934;12.050;2023-05-27T13:04:03;2.75;;;1.73;;
68479;SDS011;55469;48.934;12.050;2023-05-27T13:06:29;1.90;;;1.70;;
68479;SDS011;55469;48.934;12.050;2023-05-27T13:08:55;2.38;;;1.60;;
68479;SDS011;55469;48.934;12.050;2023-05-27T13:11:21;3.00;;;2.00;;
68479;SDS011;55469;48.934;12.050;2023-05-27T13:13:47;4.00;;;1.80;;
68479;SDS011;55469;48.934;12.050;2023-05-27T13:16:13;3.60;;;1.90;;
68479;SDS011;55469;48.934;12.050;2023-05-27T13:18:38;3.88;;;1.98;;
68479;SDS011;55469;48.934;12.050;2023-05-27T13:21:05;2.85;;;1.58;;
68479;SDS011;55469;48.934;12.050;2023-05-27T13:23:31;3.50;;;1.90;;
68479;SDS011;55469;48.934;12.050;2023-05-27T13:25:57;3.05;;;1.95;;
68479;SDS011;55469;48.934;12.050;2023-05-27T13:28:22;2.65;;;1.63;;
68479;SDS011;55469;48.934;12.050;2023-05-27T13:30:48;2.70;;;1.80;;
68479;SDS011;55469;48.934;12.050;2023-05-27T13:33:14;2.30;;;1.65;;
68479;SDS011;55469;48.934;12.050;2023-05-27T13:38:42;3.25;;;1.70;;
68479;SDS011;55469;48.934;12.050;2023-05-27T13:41:16;2.92;;;1.75;;
68479;SDS011;55469;48.934;12.050;2023-05-27T13:43:42;2.53;;;1.77;;
68479;SDS011;55469;48.934;12.050;2023-05-27T13:46:08;3.63;;;1.85;;
68479;SDS011;55469;48.934;12.050;2023-05-27T13:48:33;2.30;;;1.63;;
68479;SDS011;55469;48.934;12.050;2023-05-27T13:50:59;3.22;;;2.00;;
68479;SDS011;55469;48.934;12.050;2023-05-27T13:53:25;1.70;;;1.60;;
68479;SDS011;55469;48.934;12.050;2023-05-27T13:58:47;3.03;;;1.70;;
68479;SDS011;55469;48.934;12.050;2023-05-27T14:01:14;1.83;;;1.48;;
68479;SDS011;55469;48.934;12.050;2023-05-27T14:03:40;2.17;;;1.60;;
68479;SDS011;55469;48.934;12.050;2023-05-27T14:06:06;2.08;;;1.55;;
68479;SDS011;55469;48.934;12.050;2023-05-27T14:08:32;3.35;;;1.80;;
68479;SDS011;55469;48.934;12.050;2023-05-27T14:10:58;2.15;;;1.60;;
68479;SDS011;55469;48.934;12.050;2023-05-27T14:13:24;2.47;;;1.70;;
68479;SDS011;55469;48.934;12.050;2023-05-27T14:15:50;2.10;;;1.40;;
68479;SDS011;55469;48.934;12.050;2023-05-27T14:18:16;2.22;;;1.60;;
68479;SDS011;55469;48.934;12.050;2023-05-27T14:20:42;2.03;;;1.60;;
68479;SDS011;55469;48.934;12.050;2023-05-27T14:23:08;2.05;;;1.80;;
68479;SDS011;55469;48.934;12.050;2023-05-27T14:25:37;2.17;;;1.80;;
68479;SDS011;55469;48.934;12.050;2023-05-27T14:28:03;2.17;;;1.65;;
68479;SDS011;55469;48.934;12.050;2023-05-27T14:30:31;2.90;;;1.88;;
68479;SDS011;55469;48.934;12.050;2023-05-27T14:33:02;2.63;;;1.67;;
68479;SDS011;55469;48.934;12.050;2023-05-27T14:35:31;2.38;;;1.65;;
68479;SDS011;55469;48.934;12.050;2023-05-27T14:37:59;2.22;;;1.60;;
68479;SDS011;55469;48.934;12.050;2023-05-27T14:40:25;2.92;;;1.92;;
68479;SDS011;55469;48.934;12.050;2023-05-27T14:42:52;2.70;;;1.65;;
68479;SDS011;55469;48.934;12.050;2023-05-27T14:45:17;2.95;;;1.80;;
68479;SDS011;55469;48.934;12.050;2023-05-27T14:47:47;2.38;;;1.60;;
68479;SDS011;55469;48.934;12.050;2023-05-27T14:50:17;2.33;;;1.60;;
68479;SDS011;55469;48.934;12.050;2023-05-27T14:52:46;2.10;;;1.70;;
68479;SDS011;55469;48.934;12.050;2023-05-27T14:55:13;2.92;;;1.80;;
68479;SDS011;55469;48.934;12.050;2023-05-27T14:57:39;2.78;;;1.52;;
68479;SDS011;55469;48.934;12.050;2023-05-27T15:00:05;2.47;;;1.55;;
68479;SDS011;55469;48.934;12.050;2023-05-27T15:02:35;2.20;;;1.50;;
68479;SDS011;55469;48.934;12.050;2023-05-27T15:05:05;2.63;;;1.40;;
68479;SDS011;55469;48.934;12.050;2023-05-27T15:07:31;2.00;;;1.50;;
68479;SDS011;55469;48.934;12.050;2023-05-27T15:09:58;2.30;;;1.75;;
68479;SDS011;55469;48.934;12.050;2023-05-27T15:12:24;2.10;;;1.63;;
68479;SDS011;55469;48.934;12.050;2023-05-27T15:14:52;1.85;;;1.40;;
68479;SDS011;55469;48.934;12.050;2023-05-27T15:17:18;2.28;;;1.65;;
68479;SDS011;55469;48.934;12.050;2023-05-27T15:19:43;3.47;;;1.60;;
68479;SDS011;55469;48.934;12.050;2023-05-27T15:22:09;1.77;;;1.60;;
68479;SDS011;55469;48.934;12.050;2023-05-27T15:24:35;1.92;;;1.60;;
68479;SDS011;55469;48.934;12.050;2023-05-27T15:27:01;2.58;;;1.80;;